Rio Negro, Brazil
Current Conditions -  °F | °C
As of 11:00 AM on Sunday 21 Dec 2014 (Local Time) from SBCG Reporting Station
Broken Clouds Broken Clouds  
Wind Chill: 81°   Ceiling: 2300
Heat Index: 85°   Visibility: 6mi
Dew Point: 72°   Wind: 20mph
Humidity: 74%   Direction: 340°NNW
Pressure: 29.88"   Gusts: NA
Location:  19.45°S, 54.97°W
Report Text: SBCG 211400Z 34017KT 9999 BKN023 FEW030TCU 27/22 Q1012
Loading
Personal Weather Stations






























Interactive Weather Map New forecast layout! Learn more

10-Day Weather Forecast

Advertisements
Track Severe Weather on mobile